sensor_id;sensor_type;location;lat;lon;timestamp;P1;durP1;ratioP1;P2;durP2;ratioP2
23682;SDS011;24897;53.514;10.482;2022-12-13T00:01:45;84.23;;;54.27;;
23682;SDS011;24897;53.514;10.482;2022-12-13T00:04:30;88.03;;;54.27;;
23682;SDS011;24897;53.514;10.482;2022-12-13T00:07:14;87.40;;;53.27;;
23682;SDS011;24897;53.514;10.482;2022-12-13T00:09:59;88.40;;;54.87;;
23682;SDS011;24897;53.514;10.482;2022-12-13T00:12:43;102.77;;;57.03;;
23682;SDS011;24897;53.514;10.482;2022-12-13T00:15:28;101.30;;;59.57;;
23682;SDS011;24897;53.514;10.482;2022-12-13T00:18:12;108.73;;;59.33;;
23682;SDS011;24897;53.514;10.482;2022-12-13T00:20:56;101.57;;;59.17;;
23682;SDS011;24897;53.514;10.482;2022-12-13T00:23:41;113.23;;;59.27;;
23682;SDS011;24897;53.514;10.482;2022-12-13T00:26:26;108.27;;;58.87;;
23682;SDS011;24897;53.514;10.482;2022-12-13T00:29:12;108.70;;;62.83;;
23682;SDS011;24897;53.514;10.482;2022-12-13T00:31:56;127.17;;;64.63;;
23682;SDS011;24897;53.514;10.482;2022-12-13T00:34:40;110.33;;;62.57;;
23682;SDS011;24897;53.514;10.482;2022-12-13T00:37:24;113.63;;;60.87;;
23682;SDS011;24897;53.514;10.482;2022-12-13T00:40:09;108.63;;;58.50;;
23682;SDS011;24897;53.514;10.482;2022-12-13T00:42:54;122.70;;;63.87;;
23682;SDS011;24897;53.514;10.482;2022-12-13T00:45:38;126.20;;;63.80;;
23682;SDS011;24897;53.514;10.482;2022-12-13T00:48:23;123.57;;;62.97;;
23682;SDS011;24897;53.514;10.482;2022-12-13T00:51:08;115.30;;;61.70;;
23682;SDS011;24897;53.514;10.482;2022-12-13T00:53:54;126.00;;;64.17;;
23682;SDS011;24897;53.514;10.482;2022-12-13T00:56:39;127.97;;;63.13;;
23682;SDS011;24897;53.514;10.482;2022-12-13T00:59:23;107.27;;;58.97;;
23682;SDS011;24897;53.514;10.482;2022-12-13T01:02:08;115.03;;;59.93;;
23682;SDS011;24897;53.514;10.482;2022-12-13T01:04:52;120.03;;;60.07;;
23682;SDS011;24897;53.514;10.482;2022-12-13T01:07:37;120.00;;;61.40;;
23682;SDS011;24897;53.514;10.482;2022-12-13T01:10:22;110.00;;;59.30;;
23682;SDS011;24897;53.514;10.482;2022-12-13T01:13:06;110.13;;;57.10;;
23682;SDS011;24897;53.514;10.482;2022-12-13T01:15:51;106.37;;;57.90;;
23682;SDS011;24897;53.514;10.482;2022-12-13T01:18:35;96.57;;;55.67;;
23682;SDS011;24897;53.514;10.482;2022-12-13T01:21:20;92.47;;;55.47;;
23682;SDS011;24897;53.514;10.482;2022-12-13T01:24:05;104.93;;;56.10;;
23682;SDS011;24897;53.514;10.482;2022-12-13T01:26:51;94.67;;;55.43;;
23682;SDS011;24897;53.514;10.482;2022-12-13T01:29:36;102.43;;;56.73;;
23682;SDS011;24897;53.514;10.482;2022-12-13T01:32:20;100.70;;;56.13;;
23682;SDS011;24897;53.514;10.482;2022-12-13T01:35:04;93.70;;;54.90;;
23682;SDS011;24897;53.514;10.482;2022-12-13T01:37:49;96.93;;;53.37;;
23682;SDS011;24897;53.514;10.482;2022-12-13T01:40:33;95.03;;;53.33;;
23682;SDS011;24897;53.514;10.482;2022-12-13T01:43:17;92.43;;;53.03;;
23682;SDS011;24897;53.514;10.482;2022-12-13T01:46:02;98.10;;;53.53;;
23682;SDS011;24897;53.514;10.482;2022-12-13T01:51:58;88.83;;;51.27;;
23682;SDS011;24897;53.514;10.482;2022-12-13T01:54:48;101.27;;;55.07;;
23682;SDS011;24897;53.514;10.482;2022-12-13T01:57:36;84.80;;;52.00;;
23682;SDS011;24897;53.514;10.482;2022-12-13T02:00:23;89.27;;;52.10;;
23682;SDS011;24897;53.514;10.482;2022-12-13T02:03:09;93.63;;;53.70;;
23682;SDS011;24897;53.514;10.482;2022-12-13T02:05:58;93.10;;;54.20;;
23682;SDS011;24897;53.514;10.482;2022-12-13T02:08:55;92.90;;;53.30;;
23682;SDS011;24897;53.514;10.482;2022-12-13T02:11:41;88.53;;;50.97;;
23682;SDS011;24897;53.514;10.482;2022-12-13T02:14:27;90.70;;;54.07;;
23682;SDS011;24897;53.514;10.482;2022-12-13T02:20:42;91.17;;;53.17;;
23682;SDS011;24897;53.514;10.482;2022-12-13T02:36:19;83.57;;;50.17;;
23682;SDS011;24897;53.514;10.482;2022-12-13T02:39:25;79.17;;;51.37;;
23682;SDS011;24897;53.514;10.482;2022-12-13T02:42:20;85.70;;;53.40;;
23682;SDS011;24897;53.514;10.482;2022-12-13T02:45:11;82.53;;;50.90;;
23682;SDS011;24897;53.514;10.482;2022-12-13T02:47:59;84.40;;;50.33;;
23682;SDS011;24897;53.514;10.482;2022-12-13T02:50:46;84.60;;;51.53;;
23682;SDS011;24897;53.514;10.482;2022-12-13T02:53:32;86.10;;;52.60;;
23682;SDS011;24897;53.514;10.482;2022-12-13T02:56:19;80.23;;;50.33;;
23682;SDS011;24897;53.514;10.482;2022-12-13T02:59:05;83.80;;;52.07;;
23682;SDS011;24897;53.514;10.482;2022-12-13T03:11:30;85.90;;;51.87;;
23682;SDS011;24897;53.514;10.482;2022-12-13T03:14:38;76.77;;;49.93;;
23682;SDS011;24897;53.514;10.482;2022-12-13T03:17:30;80.23;;;49.90;;
23682;SDS011;24897;53.514;10.482;2022-12-13T03:20:21;84.17;;;51.40;;
23682;SDS011;24897;53.514;10.482;2022-12-13T03:23:09;90.90;;;54.57;;
23682;SDS011;24897;53.514;10.482;2022-12-13T03:25:55;79.47;;;52.03;;
23682;SDS011;24897;53.514;10.482;2022-12-13T03:28:47;76.23;;;50.70;;
23682;SDS011;24897;53.514;10.482;2022-12-13T03:31:32;78.07;;;50.83;;
23682;SDS011;24897;53.514;10.482;2022-12-13T03:34:16;83.93;;;53.03;;
23682;SDS011;24897;53.514;10.482;2022-12-13T03:37:01;84.47;;;52.93;;
23682;SDS011;24897;53.514;10.482;2022-12-13T03:39:44;90.73;;;52.93;;
23682;SDS011;24897;53.514;10.482;2022-12-13T03:42:29;86.47;;;52.57;;
23682;SDS011;24897;53.514;10.482;2022-12-13T03:45:13;85.50;;;54.47;;
23682;SDS011;24897;53.514;10.482;2022-12-13T03:47:58;91.53;;;55.63;;
23682;SDS011;24897;53.514;10.482;2022-12-13T03:50:42;96.73;;;56.30;;
23682;SDS011;24897;53.514;10.482;2022-12-13T03:53:27;97.77;;;55.90;;
23682;SDS011;24897;53.514;10.482;2022-12-13T03:56:12;92.03;;;56.23;;
23682;SDS011;24897;53.514;10.482;2022-12-13T03:58:56;91.47;;;57.10;;
23682;SDS011;24897;53.514;10.482;2022-12-13T04:01:40;95.43;;;55.67;;
23682;SDS011;24897;53.514;10.482;2022-12-13T04:04:25;91.10;;;54.90;;
23682;SDS011;24897;53.514;10.482;2022-12-13T04:07:09;94.33;;;54.50;;
23682;SDS011;24897;53.514;10.482;2022-12-13T04:09:54;91.30;;;56.37;;
23682;SDS011;24897;53.514;10.482;2022-12-13T04:12:38;96.67;;;55.80;;
23682;SDS011;24897;53.514;10.482;2022-12-13T04:15:41;98.03;;;56.73;;
23682;SDS011;24897;53.514;10.482;2022-12-13T04:18:31;96.30;;;55.80;;
23682;SDS011;24897;53.514;10.482;2022-12-13T04:21:15;99.47;;;58.37;;
23682;SDS011;24897;53.514;10.482;2022-12-13T04:23:59;98.93;;;57.47;;
23682;SDS011;24897;53.514;10.482;2022-12-13T04:26:44;96.40;;;56.93;;
23682;SDS011;24897;53.514;10.482;2022-12-13T04:29:28;96.63;;;56.07;;
23682;SDS011;24897;53.514;10.482;2022-12-13T04:32:14;95.33;;;56.90;;
23682;SDS011;24897;53.514;10.482;2022-12-13T04:34:58;91.67;;;54.87;;
23682;SDS011;24897;53.514;10.482;2022-12-13T04:37:42;87.47;;;53.73;;
23682;SDS011;24897;53.514;10.482;2022-12-13T04:40:26;88.57;;;55.30;;
23682;SDS011;24897;53.514;10.482;2022-12-13T04:43:10;90.40;;;56.20;;
23682;SDS011;24897;53.514;10.482;2022-12-13T04:45:54;97.07;;;56.40;;
23682;SDS011;24897;53.514;10.482;2022-12-13T04:48:39;88.70;;;54.80;;
23682;SDS011;24897;53.514;10.482;2022-12-13T04:51:23;97.30;;;56.17;;
23682;SDS011;24897;53.514;10.482;2022-12-13T04:54:08;101.07;;;55.17;;
23682;SDS011;24897;53.514;10.482;2022-12-13T04:56:53;96.30;;;56.53;;
23682;SDS011;24897;53.514;10.482;2022-12-13T04:59:37;104.67;;;59.37;;
23682;SDS011;24897;53.514;10.482;2022-12-13T05:02:21;97.80;;;57.83;;
23682;SDS011;24897;53.514;10.482;2022-12-13T05:05:09;105.70;;;59.63;;
23682;SDS011;24897;53.514;10.482;2022-12-13T05:07:53;108.30;;;60.73;;
23682;SDS011;24897;53.514;10.482;2022-12-13T05:10:38;107.27;;;58.97;;
23682;SDS011;24897;53.514;10.482;2022-12-13T05:13:22;102.83;;;57.63;;
23682;SDS011;24897;53.514;10.482;2022-12-13T05:16:07;107.30;;;58.83;;
23682;SDS011;24897;53.514;10.482;2022-12-13T05:18:51;96.50;;;54.90;;
23682;SDS011;24897;53.514;10.482;2022-12-13T05:21:35;113.67;;;58.40;;
23682;SDS011;24897;53.514;10.482;2022-12-13T05:24:19;99.60;;;54.53;;
23682;SDS011;24897;53.514;10.482;2022-12-13T05:27:03;95.50;;;54.30;;
23682;SDS011;24897;53.514;10.482;2022-12-13T05:29:47;93.57;;;52.90;;
23682;SDS011;24897;53.514;10.482;2022-12-13T05:32:32;96.57;;;56.13;;
23682;SDS011;24897;53.514;10.482;2022-12-13T05:35:21;108.27;;;56.83;;
23682;SDS011;24897;53.514;10.482;2022-12-13T05:38:05;135.40;;;112.17;;
23682;SDS011;24897;53.514;10.482;2022-12-13T05:40:50;138.67;;;111.20;;
23682;SDS011;24897;53.514;10.482;2022-12-13T05:43:34;138.90;;;111.27;;
23682;SDS011;24897;53.514;10.482;2022-12-13T05:46:19;135.60;;;108.90;;
23682;SDS011;24897;53.514;10.482;2022-12-13T05:49:03;136.57;;;107.93;;
23682;SDS011;24897;53.514;10.482;2022-12-13T05:51:47;130.23;;;105.87;;
23682;SDS011;24897;53.514;10.482;2022-12-13T05:54:31;142.50;;;109.43;;
23682;SDS011;24897;53.514;10.482;2022-12-13T05:57:15;143.83;;;109.03;;
23682;SDS011;24897;53.514;10.482;2022-12-13T05:59:59;101.37;;;55.80;;
23682;SDS011;24897;53.514;10.482;2022-12-13T06:02:43;104.53;;;55.67;;
23682;SDS011;24897;53.514;10.482;2022-12-13T06:05:28;110.03;;;58.10;;
23682;SDS011;24897;53.514;10.482;2022-12-13T06:08:13;101.07;;;55.77;;
23682;SDS011;24897;53.514;10.482;2022-12-13T06:10:59;103.63;;;55.17;;
23682;SDS011;24897;53.514;10.482;2022-12-13T06:13:48;101.80;;;55.47;;
23682;SDS011;24897;53.514;10.482;2022-12-13T06:16:34;105.83;;;57.00;;
23682;SDS011;24897;53.514;10.482;2022-12-13T06:19:19;100.43;;;58.23;;
23682;SDS011;24897;53.514;10.482;2022-12-13T06:22:06;109.20;;;58.30;;
23682;SDS011;24897;53.514;10.482;2022-12-13T06:24:50;103.67;;;55.30;;
23682;SDS011;24897;53.514;10.482;2022-12-13T06:27:36;93.67;;;52.00;;
23682;SDS011;24897;53.514;10.482;2022-12-13T06:30:20;96.13;;;56.07;;
23682;SDS011;24897;53.514;10.482;2022-12-13T06:33:04;106.20;;;56.90;;
23682;SDS011;24897;53.514;10.482;2022-12-13T06:35:48;107.57;;;56.57;;
23682;SDS011;24897;53.514;10.482;2022-12-13T06:38:35;98.40;;;54.83;;
23682;SDS011;24897;53.514;10.482;2022-12-13T06:41:19;106.83;;;58.00;;
23682;SDS011;24897;53.514;10.482;2022-12-13T06:44:04;102.83;;;55.03;;
23682;SDS011;24897;53.514;10.482;2022-12-13T06:46:48;112.87;;;58.03;;
23682;SDS011;24897;53.514;10.482;2022-12-13T06:49:33;100.53;;;57.07;;
23682;SDS011;24897;53.514;10.482;2022-12-13T06:52:17;105.90;;;59.30;;
23682;SDS011;24897;53.514;10.482;2022-12-13T06:55:01;106.93;;;58.57;;
23682;SDS011;24897;53.514;10.482;2022-12-13T06:57:46;105.50;;;58.57;;
23682;SDS011;24897;53.514;10.482;2022-12-13T07:00:30;104.63;;;57.53;;
23682;SDS011;24897;53.514;10.482;2022-12-13T07:03:14;99.80;;;54.97;;
23682;SDS011;24897;53.514;10.482;2022-12-13T07:05:59;96.30;;;55.20;;
23682;SDS011;24897;53.514;10.482;2022-12-13T07:08:49;102.13;;;56.97;;
23682;SDS011;24897;53.514;10.482;2022-12-13T07:11:36;104.37;;;56.63;;
23682;SDS011;24897;53.514;10.482;2022-12-13T07:14:20;103.63;;;55.73;;
23682;SDS011;24897;53.514;10.482;2022-12-13T07:17:04;99.60;;;57.43;;
23682;SDS011;24897;53.514;10.482;2022-12-13T07:19:48;103.37;;;56.97;;
23682;SDS011;24897;53.514;10.482;2022-12-13T07:22:32;110.23;;;58.07;;
23682;SDS011;24897;53.514;10.482;2022-12-13T07:25:17;94.27;;;54.73;;
23682;SDS011;24897;53.514;10.482;2022-12-13T07:28:02;101.27;;;56.07;;
23682;SDS011;24897;53.514;10.482;2022-12-13T07:30:48;103.07;;;56.77;;
23682;SDS011;24897;53.514;10.482;2022-12-13T07:33:33;106.77;;;55.07;;
23682;SDS011;24897;53.514;10.482;2022-12-13T07:36:19;97.10;;;55.50;;
23682;SDS011;24897;53.514;10.482;2022-12-13T07:39:04;96.20;;;54.87;;
23682;SDS011;24897;53.514;10.482;2022-12-13T07:41:48;107.13;;;56.20;;
23682;SDS011;24897;53.514;10.482;2022-12-13T07:44:32;105.90;;;57.90;;
23682;SDS011;24897;53.514;10.482;2022-12-13T07:47:16;95.00;;;56.50;;
23682;SDS011;24897;53.514;10.482;2022-12-13T07:50:03;92.63;;;52.17;;
23682;SDS011;24897;53.514;10.482;2022-12-13T07:52:48;97.80;;;53.97;;
23682;SDS011;24897;53.514;10.482;2022-12-13T07:55:33;102.20;;;54.43;;
23682;SDS011;24897;53.514;10.482;2022-12-13T07:58:19;95.17;;;54.57;;
23682;SDS011;24897;53.514;10.482;2022-12-13T08:01:04;88.77;;;53.90;;
23682;SDS011;24897;53.514;10.482;2022-12-13T08:03:50;84.57;;;50.93;;
23682;SDS011;24897;53.514;10.482;2022-12-13T08:06:35;100.30;;;53.63;;
23682;SDS011;24897;53.514;10.482;2022-12-13T08:09:20;90.03;;;52.00;;
23682;SDS011;24897;53.514;10.482;2022-12-13T08:12:04;85.87;;;52.07;;
23682;SDS011;24897;53.514;10.482;2022-12-13T08:14:49;91.83;;;52.90;;
23682;SDS011;24897;53.514;10.482;2022-12-13T08:17:33;87.30;;;51.97;;
23682;SDS011;24897;53.514;10.482;2022-12-13T08:20:17;91.83;;;54.33;;
23682;SDS011;24897;53.514;10.482;2022-12-13T08:23:02;96.73;;;54.90;;
23682;SDS011;24897;53.514;10.482;2022-12-13T08:25:51;89.00;;;52.60;;
23682;SDS011;24897;53.514;10.482;2022-12-13T08:28:37;99.17;;;56.27;;
23682;SDS011;24897;53.514;10.482;2022-12-13T08:31:21;96.17;;;54.43;;
23682;SDS011;24897;53.514;10.482;2022-12-13T08:34:05;94.27;;;54.07;;
23682;SDS011;24897;53.514;10.482;2022-12-13T08:36:50;173.57;;;89.53;;
23682;SDS011;24897;53.514;10.482;2022-12-13T08:39:35;189.43;;;103.63;;
23682;SDS011;24897;53.514;10.482;2022-12-13T08:42:20;93.60;;;54.93;;
23682;SDS011;24897;53.514;10.482;2022-12-13T08:45:05;98.50;;;54.53;;
23682;SDS011;24897;53.514;10.482;2022-12-13T08:47:50;94.50;;;52.33;;
23682;SDS011;24897;53.514;10.482;2022-12-13T08:50:34;93.00;;;54.70;;
23682;SDS011;24897;53.514;10.482;2022-12-13T08:53:18;97.80;;;54.40;;
23682;SDS011;24897;53.514;10.482;2022-12-13T08:56:03;95.20;;;54.53;;
23682;SDS011;24897;53.514;10.482;2022-12-13T08:58:49;88.23;;;52.30;;
23682;SDS011;24897;53.514;10.482;2022-12-13T09:01:34;92.40;;;53.17;;
23682;SDS011;24897;53.514;10.482;2022-12-13T09:04:18;89.83;;;52.97;;
23682;SDS011;24897;53.514;10.482;2022-12-13T09:07:02;82.40;;;50.63;;
23682;SDS011;24897;53.514;10.482;2022-12-13T09:09:46;89.67;;;52.73;;
23682;SDS011;24897;53.514;10.482;2022-12-13T09:12:30;81.17;;;50.17;;
23682;SDS011;24897;53.514;10.482;2022-12-13T09:15:14;78.57;;;49.00;;
23682;SDS011;24897;53.514;10.482;2022-12-13T09:17:59;79.90;;;51.50;;
23682;SDS011;24897;53.514;10.482;2022-12-13T09:20:43;82.70;;;50.27;;
23682;SDS011;24897;53.514;10.482;2022-12-13T09:23:27;73.77;;;47.43;;
23682;SDS011;24897;53.514;10.482;2022-12-13T09:26:11;73.77;;;48.23;;
23682;SDS011;24897;53.514;10.482;2022-12-13T09:28:57;76.50;;;50.20;;
23682;SDS011;24897;53.514;10.482;2022-12-13T09:31:41;74.50;;;48.47;;
23682;SDS011;24897;53.514;10.482;2022-12-13T09:34:26;71.77;;;47.57;;
23682;SDS011;24897;53.514;10.482;2022-12-13T09:37:10;62.27;;;45.30;;
23682;SDS011;24897;53.514;10.482;2022-12-13T09:39:56;69.23;;;46.23;;
23682;SDS011;24897;53.514;10.482;2022-12-13T09:42:40;68.43;;;46.90;;
23682;SDS011;24897;53.514;10.482;2022-12-13T09:45:30;64.27;;;44.63;;
23682;SDS011;24897;53.514;10.482;2022-12-13T09:48:20;62.43;;;45.23;;
23682;SDS011;24897;53.514;10.482;2022-12-13T09:51:07;61.77;;;43.93;;
23682;SDS011;24897;53.514;10.482;2022-12-13T09:53:53;65.13;;;46.90;;
23682;SDS011;24897;53.514;10.482;2022-12-13T09:56:38;60.77;;;44.90;;
23682;SDS011;24897;53.514;10.482;2022-12-13T09:59:32;59.53;;;43.00;;
23682;SDS011;24897;53.514;10.482;2022-12-13T10:02:27;51.73;;;41.03;;
23682;SDS011;24897;53.514;10.482;2022-12-13T10:05:29;54.73;;;43.63;;
23682;SDS011;24897;53.514;10.482;2022-12-13T10:08:20;57.37;;;44.00;;
23682;SDS011;24897;53.514;10.482;2022-12-13T10:11:12;53.27;;;41.93;;
23682;SDS011;24897;53.514;10.482;2022-12-13T10:14:14;70.63;;;50.80;;
23682;SDS011;24897;53.514;10.482;2022-12-13T10:17:20;58.27;;;43.13;;
23682;SDS011;24897;53.514;10.482;2022-12-13T10:20:11;53.13;;;41.63;;
23682;SDS011;24897;53.514;10.482;2022-12-13T10:23:01;51.63;;;41.20;;
23682;SDS011;24897;53.514;10.482;2022-12-13T10:25:46;47.83;;;39.03;;
23682;SDS011;24897;53.514;10.482;2022-12-13T10:28:34;48.37;;;38.90;;
23682;SDS011;24897;53.514;10.482;2022-12-13T10:31:19;47.27;;;38.77;;
23682;SDS011;24897;53.514;10.482;2022-12-13T10:34:03;48.77;;;38.37;;
23682;SDS011;24897;53.514;10.482;2022-12-13T10:36:47;47.50;;;37.33;;
23682;SDS011;24897;53.514;10.482;2022-12-13T10:42:24;45.90;;;34.70;;
23682;SDS011;24897;53.514;10.482;2022-12-13T10:45:17;44.17;;;34.80;;
23682;SDS011;24897;53.514;10.482;2022-12-13T10:48:02;42.37;;;34.20;;
23682;SDS011;24897;53.514;10.482;2022-12-13T10:50:54;42.60;;;34.17;;
23682;SDS011;24897;53.514;10.482;2022-12-13T10:53:47;42.10;;;33.60;;
23682;SDS011;24897;53.514;10.482;2022-12-13T10:56:46;40.07;;;31.70;;
23682;SDS011;24897;53.514;10.482;2022-12-13T10:59:36;44.30;;;32.93;;
23682;SDS011;24897;53.514;10.482;2022-12-13T11:02:30;39.80;;;29.33;;
23682;SDS011;24897;53.514;10.482;2022-12-13T11:05:23;36.97;;;28.23;;
23682;SDS011;24897;53.514;10.482;2022-12-13T11:08:22;39.67;;;29.07;;
23682;SDS011;24897;53.514;10.482;2022-12-13T11:11:10;40.33;;;29.80;;
23682;SDS011;24897;53.514;10.482;2022-12-13T11:13:56;38.40;;;28.20;;
23682;SDS011;24897;53.514;10.482;2022-12-13T11:17:05;37.27;;;28.40;;
23682;SDS011;24897;53.514;10.482;2022-12-13T11:20:03;39.10;;;28.70;;
23682;SDS011;24897;53.514;10.482;2022-12-13T11:22:58;38.20;;;28.60;;
23682;SDS011;24897;53.514;10.482;2022-12-13T11:26:09;38.80;;;27.90;;
23682;SDS011;24897;53.514;10.482;2022-12-13T11:29:10;39.87;;;29.10;;
23682;SDS011;24897;53.514;10.482;2022-12-13T11:32:27;41.23;;;30.97;;
23682;SDS011;24897;53.514;10.482;2022-12-13T11:38:59;68.53;;;45.27;;
23682;SDS011;24897;53.514;10.482;2022-12-13T11:45:15;62.50;;;46.00;;
23682;SDS011;24897;53.514;10.482;2022-12-13T11:48:05;68.40;;;48.17;;
23682;SDS011;24897;53.514;10.482;2022-12-13T11:50:52;65.07;;;47.80;;
23682;SDS011;24897;53.514;10.482;2022-12-13T11:53:51;75.03;;;51.17;;
23682;SDS011;24897;53.514;10.482;2022-12-13T11:56:50;119.07;;;73.90;;
23682;SDS011;24897;53.514;10.482;2022-12-13T11:59:41;81.67;;;55.33;;
23682;SDS011;24897;53.514;10.482;2022-12-13T12:02:32;71.13;;;49.30;;
23682;SDS011;24897;53.514;10.482;2022-12-13T12:05:26;64.70;;;45.83;;
23682;SDS011;24897;53.514;10.482;2022-12-13T12:08:22;70.00;;;49.27;;
23682;SDS011;24897;53.514;10.482;2022-12-13T12:11:27;68.93;;;49.03;;
23682;SDS011;24897;53.514;10.482;2022-12-13T12:14:21;63.03;;;46.40;;
23682;SDS011;24897;53.514;10.482;2022-12-13T12:17:21;62.30;;;45.67;;
23682;SDS011;24897;53.514;10.482;2022-12-13T12:20:11;66.47;;;46.47;;
23682;SDS011;24897;53.514;10.482;2022-12-13T12:32:12;65.47;;;45.33;;
23682;SDS011;24897;53.514;10.482;2022-12-13T12:43:59;58.67;;;42.57;;
23682;SDS011;24897;53.514;10.482;2022-12-13T12:56:20;52.27;;;40.50;;
23682;SDS011;24897;53.514;10.482;2022-12-13T12:59:25;54.50;;;41.27;;
23682;SDS011;24897;53.514;10.482;2022-12-13T13:02:22;54.03;;;39.80;;
23682;SDS011;24897;53.514;10.482;2022-12-13T13:11:29;57.03;;;43.00;;
23682;SDS011;24897;53.514;10.482;2022-12-13T13:14:30;57.03;;;42.77;;
23682;SDS011;24897;53.514;10.482;2022-12-13T13:20:15;56.73;;;43.37;;
23682;SDS011;24897;53.514;10.482;2022-12-13T13:23:12;59.07;;;45.10;;
23682;SDS011;24897;53.514;10.482;2022-12-13T13:25:58;69.67;;;50.10;;
23682;SDS011;24897;53.514;10.482;2022-12-13T13:28:42;99.53;;;89.87;;
23682;SDS011;24897;53.514;10.482;2022-12-13T13:31:26;95.17;;;85.77;;
23682;SDS011;24897;53.514;10.482;2022-12-13T13:34:40;92.57;;;83.57;;
23682;SDS011;24897;53.514;10.482;2022-12-13T13:37:28;90.87;;;82.40;;
23682;SDS011;24897;53.514;10.482;2022-12-13T13:40:33;88.60;;;79.90;;
23682;SDS011;24897;53.514;10.482;2022-12-13T13:43:28;89.03;;;80.53;;
23682;SDS011;24897;53.514;10.482;2022-12-13T13:46:13;88.57;;;80.03;;
23682;SDS011;24897;53.514;10.482;2022-12-13T13:49:02;87.73;;;79.43;;
23682;SDS011;24897;53.514;10.482;2022-12-13T13:51:59;88.87;;;79.87;;
23682;SDS011;24897;53.514;10.482;2022-12-13T13:55:12;88.77;;;80.33;;
23682;SDS011;24897;53.514;10.482;2022-12-13T14:17:13;86.43;;;78.00;;
23682;SDS011;24897;53.514;10.482;2022-12-13T14:31:42;88.00;;;79.43;;
23682;SDS011;24897;53.514;10.482;2022-12-13T14:34:29;90.37;;;81.27;;
23682;SDS011;24897;53.514;10.482;2022-12-13T14:37:25;89.63;;;80.83;;
23682;SDS011;24897;53.514;10.482;2022-12-13T14:41:15;95.07;;;84.97;;
23682;SDS011;24897;53.514;10.482;2022-12-13T14:43:32;88.87;;;80.07;;
23682;SDS011;24897;53.514;10.482;2022-12-13T14:46:17;91.93;;;82.97;;
23682;SDS011;24897;53.514;10.482;2022-12-13T14:49:01;90.63;;;81.80;;
23682;SDS011;24897;53.514;10.482;2022-12-13T14:51:47;95.07;;;85.30;;
23682;SDS011;24897;53.514;10.482;2022-12-13T14:54:40;95.63;;;85.37;;
23682;SDS011;24897;53.514;10.482;2022-12-13T14:57:30;93.17;;;83.60;;
23682;SDS011;24897;53.514;10.482;2022-12-13T15:00:20;91.33;;;82.10;;
23682;SDS011;24897;53.514;10.482;2022-12-13T15:03:21;95.83;;;85.50;;
23682;SDS011;24897;53.514;10.482;2022-12-13T15:06:08;92.47;;;83.17;;
23682;SDS011;24897;53.514;10.482;2022-12-13T15:08:53;94.80;;;84.80;;
23682;SDS011;24897;53.514;10.482;2022-12-13T15:11:37;94.47;;;84.40;;
23682;SDS011;24897;53.514;10.482;2022-12-13T15:14:23;92.10;;;82.50;;
23682;SDS011;24897;53.514;10.482;2022-12-13T15:17:20;90.97;;;81.80;;
23682;SDS011;24897;53.514;10.482;2022-12-13T15:20:24;96.03;;;86.20;;
23682;SDS011;24897;53.514;10.482;2022-12-13T15:26:17;95.93;;;86.77;;
23682;SDS011;24897;53.514;10.482;2022-12-13T15:29:04;96.77;;;87.07;;
23682;SDS011;24897;53.514;10.482;2022-12-13T15:31:50;95.20;;;85.77;;
23682;SDS011;24897;53.514;10.482;2022-12-13T15:34:35;94.93;;;85.33;;
23682;SDS011;24897;53.514;10.482;2022-12-13T15:37:21;95.13;;;85.40;;
23682;SDS011;24897;53.514;10.482;2022-12-13T15:40:11;97.53;;;87.50;;
23682;SDS011;24897;53.514;10.482;2022-12-13T15:42:57;95.97;;;86.10;;
23682;SDS011;24897;53.514;10.482;2022-12-13T15:45:43;96.03;;;86.10;;
23682;SDS011;24897;53.514;10.482;2022-12-13T15:48:30;96.80;;;86.57;;
23682;SDS011;24897;53.514;10.482;2022-12-13T15:51:17;97.23;;;87.47;;
23682;SDS011;24897;53.514;10.482;2022-12-13T15:54:16;95.23;;;85.23;;
23682;SDS011;24897;53.514;10.482;2022-12-13T15:57:14;89.27;;;80.57;;
23682;SDS011;24897;53.514;10.482;2022-12-13T16:03:07;85.40;;;76.37;;
23682;SDS011;24897;53.514;10.482;2022-12-13T16:05:57;81.43;;;72.87;;
23682;SDS011;24897;53.514;10.482;2022-12-13T16:08:41;85.57;;;75.57;;
23682;SDS011;24897;53.514;10.482;2022-12-13T16:11:33;81.50;;;71.23;;
23682;SDS011;24897;53.514;10.482;2022-12-13T16:17:24;80.83;;;66.27;;
23682;SDS011;24897;53.514;10.482;2022-12-13T16:20:13;75.50;;;60.33;;
23682;SDS011;24897;53.514;10.482;2022-12-13T16:22:58;72.80;;;51.40;;
23682;SDS011;24897;53.514;10.482;2022-12-13T16:25:42;70.87;;;51.73;;
23682;SDS011;24897;53.514;10.482;2022-12-13T16:28:28;69.13;;;50.63;;
23682;SDS011;24897;53.514;10.482;2022-12-13T16:34:01;71.43;;;49.83;;
23682;SDS011;24897;53.514;10.482;2022-12-13T16:36:46;77.83;;;51.70;;
23682;SDS011;24897;53.514;10.482;2022-12-13T16:39:30;71.90;;;49.77;;
23682;SDS011;24897;53.514;10.482;2022-12-13T16:42:15;70.97;;;49.63;;
23682;SDS011;24897;53.514;10.482;2022-12-13T16:44:59;73.33;;;50.77;;
23682;SDS011;24897;53.514;10.482;2022-12-13T16:47:45;72.67;;;50.50;;
23682;SDS011;24897;53.514;10.482;2022-12-13T16:50:31;74.07;;;50.53;;
23682;SDS011;24897;53.514;10.482;2022-12-13T16:53:15;68.37;;;49.00;;
23682;SDS011;24897;53.514;10.482;2022-12-13T16:56:00;79.37;;;51.00;;
23682;SDS011;24897;53.514;10.482;2022-12-13T16:58:45;76.67;;;50.97;;
23682;SDS011;24897;53.514;10.482;2022-12-13T17:01:30;83.33;;;52.17;;
23682;SDS011;24897;53.514;10.482;2022-12-13T17:04:17;71.10;;;48.73;;
23682;SDS011;24897;53.514;10.482;2022-12-13T17:07:03;73.57;;;49.83;;
23682;SDS011;24897;53.514;10.482;2022-12-13T17:09:47;68.53;;;49.13;;
23682;SDS011;24897;53.514;10.482;2022-12-13T17:12:32;70.63;;;50.37;;
23682;SDS011;24897;53.514;10.482;2022-12-13T17:15:16;74.43;;;49.80;;
23682;SDS011;24897;53.514;10.482;2022-12-13T17:18:01;70.40;;;49.03;;
23682;SDS011;24897;53.514;10.482;2022-12-13T17:20:46;70.27;;;49.27;;
23682;SDS011;24897;53.514;10.482;2022-12-13T17:23:30;74.90;;;50.03;;
23682;SDS011;24897;53.514;10.482;2022-12-13T17:26:14;70.43;;;48.77;;
23682;SDS011;24897;53.514;10.482;2022-12-13T17:28:58;69.60;;;50.30;;
23682;SDS011;24897;53.514;10.482;2022-12-13T17:31:43;75.13;;;50.53;;
23682;SDS011;24897;53.514;10.482;2022-12-13T17:34:27;78.93;;;50.80;;
23682;SDS011;24897;53.514;10.482;2022-12-13T17:37:12;80.73;;;53.80;;
23682;SDS011;24897;53.514;10.482;2022-12-13T17:39:56;77.20;;;52.27;;
23682;SDS011;24897;53.514;10.482;2022-12-13T17:42:40;74.83;;;48.93;;
23682;SDS011;24897;53.514;10.482;2022-12-13T17:45:24;73.53;;;49.30;;
23682;SDS011;24897;53.514;10.482;2022-12-13T17:48:08;76.70;;;50.23;;
23682;SDS011;24897;53.514;10.482;2022-12-13T17:50:52;65.40;;;47.47;;
23682;SDS011;24897;53.514;10.482;2022-12-13T17:53:38;66.63;;;47.20;;
23682;SDS011;24897;53.514;10.482;2022-12-13T17:56:24;68.10;;;47.87;;
23682;SDS011;24897;53.514;10.482;2022-12-13T17:59:10;73.30;;;49.13;;
23682;SDS011;24897;53.514;10.482;2022-12-13T18:01:55;78.07;;;49.97;;